Alderson, Oklahoma
Current Conditions -  °F | °C
As of 2:53 PM on Thursday 23 Oct 2014 (Local Time) from KMLC Reporting Station
Overcast Overcast  
Wind Chill: 18°   Ceiling: 5000
Heat Index: 18°   Visibility: 10mi
Dew Point: 14°   Wind: 5mph
Humidity: 80%   Direction: 120°ESE
Pressure: 30.12"   Gusts: NA
Location:  34.9°N, 95.69°W
Report Text: KMLC 231953Z AUTO 12004KT 10SM OVC050 18/14 A3012 RMK AO2 SLP195 T01780144
Loading
Personal Weather Stations






























Interactive Weather Map
Tropical Storm Tracking
New forecast layout! Learn more

10-Day Weather Forecast

Advertisements
Track Severe Weather on mobile